createdAt,value
2017-10-17T00:00:12.197Z,67.24
2017-10-17T00:02:39.721Z,67.77
2017-10-17T00:05:07.269Z,68.24
2017-10-17T00:07:35.046Z,67.89
2017-10-17T00:10:02.680Z,68.97
2017-10-17T00:12:30.228Z,69.29
2017-10-17T00:14:57.856Z,69.49
2017-10-17T00:17:25.495Z,68.82
2017-10-17T00:19:53.047Z,69.18
2017-10-17T00:22:23.633Z,69.88
2017-10-17T00:25:10.343Z,69.62
2017-10-17T00:27:38.548Z,70.03
2017-10-17T00:30:06.070Z,69.14
2017-10-17T00:32:39.218Z,68.75
2017-10-17T00:35:23.362Z,68.16
2017-10-17T00:37:51.173Z,68.04
2017-10-17T00:40:19.127Z,68.53
2017-10-17T00:42:46.707Z,68.74
2017-10-17T00:45:14.943Z,68.88
2017-10-17T00:47:43.308Z,69.04
2017-10-17T00:50:10.941Z,69.67
2017-10-17T00:52:39.504Z,69.53
2017-10-17T00:55:10.314Z,69.28
2017-10-17T00:57:39.111Z,69.33
2017-10-17T01:00:06.713Z,69.36
2017-10-17T01:02:34.351Z,69.93
2017-10-17T01:05:01.993Z,68.98
2017-10-17T01:07:30.424Z,68.30
2017-10-17T01:09:59.278Z,68.54
2017-10-17T01:12:27.513Z,68.35
2017-10-17T01:14:55.109Z,68.69
2017-10-17T01:17:24.506Z,69.04
2017-10-17T01:20:00.860Z,68.71
2017-10-17T01:22:28.800Z,69.05
2017-10-17T01:24:56.497Z,68.86
2017-10-17T01:27:24.275Z,68.24
2017-10-17T01:29:51.898Z,68.27
2017-10-17T01:32:19.517Z,68.52
2017-10-17T01:34:49.917Z,68.57
2017-10-17T01:37:18.546Z,69.35
2017-10-17T01:39:49.027Z,70.26
2017-10-17T01:42:17.417Z,70.14
2017-10-17T01:44:52.854Z,69.41
2017-10-17T01:47:20.500Z,68.79
2017-10-17T01:49:50.651Z,69.19
2017-10-17T01:52:22.914Z,68.84
2017-10-17T01:54:56.563Z,68.41
2017-10-17T01:57:25.667Z,68.20
2017-10-17T02:00:08.173Z,67.94
2017-10-17T02:02:40.696Z,68.16
2017-10-17T02:05:08.392Z,69.31
2017-10-17T02:07:35.929Z,69.56
2017-10-17T02:10:21.205Z,69.29
2017-10-17T02:12:49.683Z,69.45
2017-10-17T02:15:18.001Z,70.09
2017-10-17T02:17:54.749Z,70.46
2017-10-17T02:20:23.052Z,69.78
2017-10-17T02:22:51.328Z,69.85
2017-10-17T02:25:35.572Z,69.87
2017-10-17T02:28:06.047Z,69.79
2017-10-17T02:30:40.200Z,69.52
2017-10-17T02:33:08.192Z,69.32
2017-10-17T02:35:37.518Z,69.16
2017-10-17T02:38:08.013Z,70.22
2017-10-17T02:40:35.531Z,69.85
2017-10-17T02:46:18.207Z,71.09
2017-10-17T02:51:53.860Z,69.63
2017-10-17T02:54:21.475Z,69.48
2017-10-17T02:56:49.106Z,69.41
2017-10-17T02:59:16.670Z,70.30
2017-10-17T03:01:49.087Z,70.90
2017-10-17T03:04:23.310Z,70.72
2017-10-17T03:06:51.576Z,71.21
2017-10-17T03:09:19.218Z,71.55
2017-10-17T03:11:46.865Z,71.74
2017-10-17T03:14:15.713Z,72.14
2017-10-17T03:16:43.258Z,71.21
2017-10-17T03:19:13.768Z,70.25
2017-10-17T03:21:45.240Z,69.87
2017-10-17T03:24:14.583Z,69.89
2017-10-17T03:26:43.020Z,70.09
2017-10-17T03:29:10.560Z,70.46
2017-10-17T03:31:39.232Z,69.98
2017-10-17T03:34:14.289Z,70.91
2017-10-17T03:36:45.128Z,70.84
2017-10-17T03:39:13.266Z,70.04
2017-10-17T03:41:41.863Z,69.21
2017-10-17T03:47:31.358Z,69.91
2017-10-17T03:50:12.449Z,69.84
2017-10-17T03:52:44.746Z,71.61
2017-10-17T03:55:13.807Z,71.50
2017-10-17T03:57:46.179Z,70.79
2017-10-17T04:00:14.235Z,70.33
2017-10-17T04:02:42.805Z,70.54
2017-10-17T04:05:18.898Z,70.42
2017-10-17T04:07:47.331Z,70.50
2017-10-17T04:10:29.241Z,69.90
2017-10-17T04:13:00.591Z,70.07
2017-10-17T04:15:28.181Z,69.71
2017-10-17T04:18:01.642Z,69.75
2017-10-17T04:20:45.695Z,69.67
2017-10-17T04:23:29.721Z,69.97
2017-10-17T04:29:42.590Z,71.78
2017-10-17T04:32:10.624Z,71.15
2017-10-17T04:34:46.781Z,70.73
2017-10-17T04:37:24.532Z,70.49
2017-10-17T04:39:52.182Z,70.62
2017-10-17T04:42:43.362Z,70.97
2017-10-17T04:48:30.164Z,71.67
2017-10-17T04:51:04.319Z,71.45
2017-10-17T04:53:42.758Z,70.93
2017-10-17T04:56:25.186Z,71.64
2017-10-17T04:58:55.400Z,71.15
2017-10-17T05:01:23.336Z,71.60
2017-10-17T05:03:58.434Z,71.28
2017-10-17T05:06:25.984Z,71.00
2017-10-17T05:12:02.157Z,71.56
2017-10-17T05:14:44.347Z,71.67
2017-10-17T05:17:28.595Z,71.01
2017-10-17T05:20:01.051Z,70.79
2017-10-17T05:22:33.751Z,70.46
2017-10-17T05:28:44.307Z,70.82
2017-10-17T05:31:13.411Z,70.79
2017-10-17T05:33:45.334Z,71.33
2017-10-17T05:39:20.934Z,71.21
2017-10-17T05:41:48.483Z,71.05
2017-10-17T05:44:27.969Z,71.03
2017-10-17T05:46:55.563Z,70.79
2017-10-17T05:49:31.218Z,71.37
2017-10-17T05:51:58.780Z,70.96
2017-10-17T05:54:26.435Z,71.22
2017-10-17T05:56:54.509Z,70.56
2017-10-17T05:59:22.067Z,71.01
2017-10-17T06:01:49.658Z,72.31
2017-10-17T06:04:17.219Z,72.37
2017-10-17T06:06:44.784Z,72.34
2017-10-17T06:09:12.937Z,71.50
2017-10-17T06:11:40.496Z,71.89
2017-10-17T06:14:08.869Z,72.42
2017-10-17T06:16:37.392Z,73.82
2017-10-17T06:19:04.939Z,72.89
2017-10-17T06:21:32.606Z,73.46
2017-10-17T06:24:00.340Z,73.59
2017-10-17T06:26:27.804Z,72.36
2017-10-17T06:28:55.284Z,73.03
2017-10-17T06:31:22.890Z,74.14
2017-10-17T06:33:50.396Z,73.46
2017-10-17T06:36:18.027Z,72.25
2017-10-17T06:38:45.529Z,71.92
2017-10-17T06:41:13.040Z,65.38
2017-10-17T06:43:41.128Z,54.48
2017-10-17T06:46:08.607Z,48.05
2017-10-17T06:48:36.139Z,44.02
2017-10-17T06:51:03.637Z,41.08
2017-10-17T06:53:31.119Z,38.23
2017-10-17T06:55:58.612Z,37.42
2017-10-17T06:58:26.175Z,35.71
2017-10-17T07:00:53.687Z,33.88
2017-10-17T07:03:21.243Z,33.47
2017-10-17T07:05:48.761Z,32.57
2017-10-17T07:08:16.376Z,31.61
2017-10-17T07:13:24.878Z,29.49
2017-10-17T07:15:53.365Z,28.93
2017-10-17T08:42:18.544Z,28.28
2017-10-17T08:44:55.948Z,27.11
2017-10-17T09:56:25.138Z,23.58
2017-10-17T10:35:01.895Z,18.93
2017-10-17T10:37:30.192Z,19.92
2017-10-17T10:44:47.765Z,20.43
2017-10-17T10:48:01.964Z,19.71
2017-10-17T10:53:38.011Z,19.93
2017-10-17T10:56:07.213Z,18.83
2017-10-17T10:58:36.627Z,19.96
2017-10-17T11:01:16.324Z,19.07
2017-10-17T11:03:50.722Z,19.31
2017-10-17T11:06:19.602Z,18.38
2017-10-17T12:18:13.801Z,16.64
2017-10-17T12:20:46.958Z,17.67
2017-10-17T12:23:18.810Z,16.68
2017-10-17T12:35:07.114Z,16.49
2017-10-17T12:37:34.777Z,15.56
2017-10-17T12:40:43.811Z,17.76
2017-10-17T12:43:12.019Z,18.05
2017-10-17T12:51:45.335Z,19.35
2017-10-17T12:54:13.555Z,19.69
2017-10-17T13:04:29.191Z,20.71
2017-10-17T13:09:46.907Z,22.49
2017-10-17T13:12:16.257Z,21.53
2017-10-17T13:14:47.535Z,21.13
2017-10-17T13:20:15.498Z,21.15
2017-10-17T13:22:43.584Z,21.05
2017-10-17T13:25:22.980Z,20.43
2017-10-17T13:27:50.619Z,21.07
2017-10-17T13:30:29.915Z,21.71
2017-10-17T13:32:59.297Z,21.11
2017-10-17T13:35:29.970Z,20.78
2017-10-17T13:41:02.091Z,19.87
2017-10-17T13:43:29.820Z,21.71
2017-10-17T13:45:57.475Z,22.58
2017-10-17T13:48:25.194Z,22.07
2017-10-17T13:50:52.732Z,21.61
2017-10-17T13:53:21.789Z,22.55
2017-10-17T13:55:57.085Z,22.52
2017-10-17T13:58:28.171Z,22.71
2017-10-17T14:03:37.197Z,23.26
2017-10-17T14:06:04.805Z,24.74
2017-10-17T14:08:35.710Z,25.15
2017-10-17T14:11:05.913Z,24.13
2017-10-17T14:13:33.501Z,22.61
2017-10-17T14:16:01.487Z,23.94
2017-10-17T14:31:04.725Z,25.55
2017-10-17T14:33:32.324Z,26.88
2017-10-17T14:36:00.322Z,26.49
2017-10-17T14:38:27.979Z,26.79
2017-10-17T14:41:01.034Z,25.77
2017-10-17T14:46:32.615Z,26.67
2017-10-17T14:49:03.425Z,27.46
2017-10-17T14:57:13.136Z,26.64
2017-10-17T14:59:40.751Z,26.98
2017-10-17T15:02:08.662Z,28.21
2017-10-17T15:15:17.477Z,29.45
2017-10-17T15:17:45.151Z,29.55
2017-10-17T15:20:16.798Z,29.89
2017-10-17T15:36:26.980Z,32.31
2017-10-17T15:38:54.544Z,32.86
2017-10-17T15:41:22.530Z,32.67
2017-10-17T15:43:50.510Z,33.41
2017-10-17T15:46:18.083Z,34.70
2017-10-17T15:48:45.757Z,34.96
2017-10-17T15:51:13.316Z,35.12
2017-10-17T15:53:40.893Z,35.87
2017-10-17T15:56:08.452Z,36.79
2017-10-17T15:58:37.329Z,37.00
2017-10-17T16:01:07.649Z,37.48
2017-10-17T16:03:35.622Z,38.79
2017-10-17T16:06:03.327Z,38.85
2017-10-17T16:08:30.930Z,38.52
2017-10-17T16:10:58.530Z,39.52
2017-10-17T16:13:26.273Z,40.64
2017-10-17T16:15:55.065Z,40.53
2017-10-17T16:18:23.066Z,40.57
2017-10-17T16:20:53.520Z,41.24
2017-10-17T16:23:21.136Z,41.71
2017-10-17T16:25:48.757Z,42.46
2017-10-17T16:28:32.083Z,42.64
2017-10-17T16:34:42.323Z,43.93
2017-10-17T16:40:05.304Z,44.76
2017-10-17T16:42:35.502Z,45.27
2017-10-17T16:45:05.915Z,45.46
2017-10-17T16:47:42.813Z,46.61
2017-10-17T16:50:11.847Z,46.03
2017-10-17T16:52:48.580Z,46.75
2017-10-17T16:55:24.061Z,46.56
2017-10-17T16:57:54.275Z,47.70
2017-10-17T17:00:23.891Z,47.17
2017-10-17T17:03:02.055Z,48.20
2017-10-17T17:05:38.094Z,47.02
2017-10-17T17:08:07.168Z,46.78
2017-10-17T17:24:02.171Z,49.93
2017-10-17T17:26:37.957Z,49.59
2017-10-17T17:29:26.486Z,49.72
2017-10-17T17:34:51.020Z,49.71
2017-10-17T17:37:18.954Z,50.40
2017-10-17T17:43:19.881Z,50.85
2017-10-17T17:45:47.688Z,51.83
2017-10-17T17:48:18.184Z,51.64
2017-10-17T17:50:48.798Z,51.64
2017-10-17T17:53:20.994Z,52.17
2017-10-17T18:02:39.493Z,53.33
2017-10-17T18:09:13.617Z,52.83
2017-10-17T18:11:42.317Z,52.98
2017-10-17T18:14:13.508Z,53.22
2017-10-17T18:16:42.671Z,53.21
2017-10-17T18:19:11.365Z,53.18
2017-10-17T18:21:39.308Z,53.66
2017-10-17T18:24:07.602Z,53.32
2017-10-17T18:26:41.559Z,53.45
2017-10-17T18:29:09.954Z,53.11
2017-10-17T18:31:37.891Z,52.89
2017-10-17T18:34:22.030Z,53.10
2017-10-17T18:36:50.170Z,52.98
2017-10-17T18:39:18.182Z,53.45
2017-10-17T18:41:46.880Z,53.83
2017-10-17T18:44:29.279Z,54.85
2017-10-17T18:46:58.216Z,54.49
2017-10-17T18:52:05.878Z,54.72
2017-10-17T18:54:35.084Z,55.65
2017-10-17T18:57:04.804Z,55.65
2017-10-17T19:03:10.297Z,55.88
2017-10-17T19:09:11.014Z,55.90
2017-10-17T19:14:37.284Z,55.76
2017-10-17T19:17:07.560Z,56.07
2017-10-17T19:19:35.857Z,56.41
2017-10-17T19:22:09.276Z,56.68
2017-10-17T19:24:39.300Z,56.79
2017-10-17T19:27:10.275Z,56.84
2017-10-17T19:29:38.189Z,57.68
2017-10-17T19:32:07.885Z,57.34
2017-10-17T19:34:36.122Z,56.85
2017-10-17T19:42:20.616Z,56.70
2017-10-17T19:44:48.480Z,56.71
2017-10-17T19:47:20.778Z,56.90
2017-10-17T19:49:49.742Z,56.72
2017-10-17T19:52:18.140Z,56.73
2017-10-17T19:54:45.786Z,57.67
2017-10-17T19:57:16.775Z,57.88
2017-10-17T19:59:45.832Z,57.76
2017-10-17T20:02:13.588Z,59.30
2017-10-17T20:04:46.797Z,59.50
2017-10-17T20:07:14.946Z,59.95
2017-10-17T20:09:48.221Z,59.29
2017-10-17T20:12:17.455Z,59.14
2017-10-17T20:14:46.700Z,59.60
2017-10-17T20:17:14.372Z,59.45
2017-10-17T20:22:36.535Z,60.31
2017-10-17T20:27:39.741Z,59.78
2017-10-17T20:30:07.623Z,60.75
2017-10-17T20:32:36.306Z,59.88
2017-10-17T20:35:04.138Z,60.27
2017-10-17T20:37:31.770Z,60.80
2017-10-17T20:39:59.508Z,59.96
2017-10-17T20:42:27.309Z,60.14
2017-10-17T20:45:05.379Z,60.07
2017-10-17T20:52:33.475Z,60.51
2017-10-17T20:55:01.428Z,60.60
2017-10-17T20:57:34.606Z,60.80
2017-10-17T21:00:04.123Z,61.71
2017-10-17T21:02:39.060Z,61.10
2017-10-17T21:07:46.435Z,61.09
2017-10-17T21:10:27.351Z,61.27
2017-10-17T21:20:48.019Z,60.56
2017-10-17T21:23:16.916Z,61.01
2017-10-17T21:29:00.069Z,61.59
2017-10-17T21:31:27.766Z,62.00
2017-10-17T21:36:33.240Z,61.45
2017-10-17T21:39:01.259Z,61.87
2017-10-17T21:41:29.200Z,61.94
2017-10-17T21:44:00.895Z,61.66
2017-10-17T21:46:30.872Z,61.90
2017-10-17T21:51:29.874Z,61.91
2017-10-17T21:56:55.843Z,62.28
2017-10-17T21:59:24.445Z,61.50
2017-10-17T22:02:07.412Z,62.38
2017-10-17T22:04:50.629Z,62.27
2017-10-17T22:07:20.047Z,63.01
2017-10-17T22:10:05.447Z,64.02
2017-10-17T22:15:43.097Z,63.73
2017-10-17T22:21:16.131Z,63.79
2017-10-17T22:26:43.065Z,63.43
2017-10-17T22:29:13.281Z,63.80
2017-10-17T22:31:54.979Z,64.51
2017-10-17T23:47:17.433Z,69.53
2017-10-17T23:49:45.190Z,69.55
2017-10-17T23:58:15.388Z,67.21
